Time,TemperatureF,DewpointF,PressureIn,WindDirection,WindDirectionDegrees,WindSpeedMPH,WindSpeedGustMPH,Humidity,HourlyPrecipIn,Conditions,Clouds,dailyrainin,SoftwareType,DateUTC
2013-06-24 07:14:00,57.0,45.0,-100.00,East,90,3.0,4.0,65,-99.99,,,-99.99,,2013-06-24 13:14:00,
2013-06-24 07:21:00,59.0,47.0,-100.00,East,85,3.0,4.0,65,-99.99,,,-99.99,,2013-06-24 13:21:00,
2013-06-24 07:36:00,58.0,46.0,-100.00,East,95,3.0,4.0,64,-99.99,,,-99.99,,2013-06-24 13:36:00,
2013-06-24 07:43:00,58.0,46.0,-100.00,East,95,3.0,4.0,64,-99.99,,,-99.99,,2013-06-24 13:43:00,
2013-06-24 08:15:00,59.0,47.0,-100.00,East,85,3.0,4.0,65,-99.99,,,-99.99,,2013-06-24 14:15:00,
2013-06-24 08:20:00,63.0,51.0,-100.00,East,95,4.0,9.0,64,-99.99,,,-99.99,,2013-06-24 14:20:00,
2013-06-24 08:36:00,63.0,50.0,-100.00,East,100,3.0,7.0,62,-99.99,,,-99.99,,2013-06-24 14:36:00,
2013-06-24 08:45:00,63.0,50.0,-100.00,East,100,3.0,7.0,62,-99.99,,,-99.99,,2013-06-24 14:45:00,
2013-06-24 09:22:00,66.0,53.0,-100.00,ENE,75,7.0,11.0,63,-99.99,,,-99.99,,2013-06-24 15:22:00,
2013-06-24 09:36:00,64.0,52.0,-100.00,East,100,6.0,9.0,64,-99.99,,,-99.99,,2013-06-24 15:36:00,
2013-06-24 09:45:00,64.0,52.0,-100.00,East,100,6.0,9.0,64,-99.99,,,-99.99,,2013-06-24 15:45:00,
2013-06-24 10:14:00,66.0,53.0,-100.00,ENE,75,7.0,11.0,63,-99.99,,,-99.99,,2013-06-24 16:14:00,
2013-06-24 10:20:00,69.0,53.0,-100.00,East,90,7.0,12.0,57,-99.99,,,-99.99,,2013-06-24 16:20:00,
2013-06-24 10:35:00,66.0,52.0,-100.00,East,80,6.0,11.0,61,-99.99,,,-99.99,,2013-06-24 16:35:00,
2013-06-24 10:43:00,66.0,52.0,-100.00,East,80,6.0,11.0,61,-99.99,,,-99.99,,2013-06-24 16:43:00,
2013-06-24 11:14:00,69.0,53.0,-100.00,East,90,7.0,12.0,57,-99.99,,,-99.99,,2013-06-24 17:14:00,
2013-06-24 12:14:00,70.0,54.0,-100.00,ENE,75,12.0,17.0,57,-99.99,,,-99.99,,2013-06-24 18:14:00,
2013-06-24 12:21:00,69.0,54.0,-100.00,ENE,75,11.0,21.0,58,-99.99,,,-99.99,,2013-06-24 18:21:00,
2013-06-24 13:13:00,69.0,54.0,-100.00,ENE,75,11.0,21.0,58,-99.99,,,-99.99,,2013-06-24 19:13:00,
2013-06-24 13:20:00,71.0,56.0,-100.00,ENE,75,12.0,17.0,59,-99.99,,,-99.99,,2013-06-24 19:20:00,
2013-06-24 13:36:00,72.0,57.0,-100.00,East,80,12.0,21.0,58,-99.99,,,-99.99,,2013-06-24 19:36:00,
2013-06-24 13:45:00,72.0,57.0,-100.00,East,80,12.0,21.0,58,-99.99,,,-99.99,,2013-06-24 19:45:00,
2013-06-24 14:12:00,71.0,56.0,-100.00,ENE,75,12.0,17.0,59,-99.99,,,-99.99,,2013-06-24 20:12:00,
2013-06-24 14:20:00,75.0,58.0,-100.00,East,85,12.0,18.0,55,-99.99,,,-99.99,,2013-06-24 20:20:00,
2013-06-24 14:34:00,74.0,58.0,-100.00,NE,50,14.0,20.0,57,-99.99,,,-99.99,,2013-06-24 20:34:00,
2013-06-24 14:45:00,74.0,58.0,-100.00,NE,50,14.0,20.0,57,-99.99,,,-99.99,,2013-06-24 20:45:00,
2013-06-24 15:13:00,75.0,58.0,-100.00,East,85,12.0,18.0,55,-99.99,,,-99.99,,2013-06-24 21:13:00,
2013-06-24 15:20:00,76.0,58.0,-100.00,East,80,12.0,18.0,54,-99.99,,,-99.99,,2013-06-24 21:20:00,
2013-06-24 15:37:00,75.0,59.0,-100.00,ENE,65,12.0,17.0,58,-99.99,,,-99.99,,2013-06-24 21:37:00,
2013-06-24 15:46:00,75.0,59.0,-100.00,ENE,65,12.0,17.0,58,-99.99,,,-99.99,,2013-06-24 21:46:00,
2013-06-24 16:14:00,76.0,58.0,-100.00,East,80,12.0,18.0,54,-99.99,,,-99.99,,2013-06-24 22:14:00,
2013-06-24 16:21:00,71.0,55.0,-100.00,East,85,11.0,17.0,56,-99.99,,,-99.99,,2013-06-24 22:21:00,
2013-06-24 16:36:00,74.0,57.0,-100.00,ENE,60,13.0,19.0,54,-99.99,,,-99.99,,2013-06-24 22:36:00,
2013-06-24 16:46:00,74.0,57.0,-100.00,ENE,60,13.0,19.0,54,-99.99,,,-99.99,,2013-06-24 22:46:00,
2013-06-24 16:50:00,70.0,55.0,-100.00,East,85,2.0,6.0,58,-99.99,,,-99.99,,2013-06-24 22:50:00,
2013-06-24 17:13:00,71.0,55.0,-100.00,East,85,11.0,17.0,56,-99.99,,,-99.99,,2013-06-24 23:13:00,
2013-06-24 17:20:00,72.0,55.0,-100.00,ENE,75,2.0,6.0,55,-99.99,,,-99.99,,2013-06-24 23:20:00,
2013-06-24 17:34:00,70.0,55.0,-100.00,East,85,2.0,6.0,58,-99.99,,,-99.99,,2013-06-24 23:34:00,
2013-06-24 17:45:00,70.0,55.0,-100.00,East,85,2.0,6.0,58,-99.99,,,-99.99,,2013-06-24 23:45:00,
2013-06-24 18:12:00,72.0,55.0,-100.00,ENE,75,2.0,6.0,55,-99.99,,,-99.99,,2013-06-25 00:12:00,